createdAt,value
2018-05-31T00:01:42.302Z,101623.73
2018-05-31T00:04:09.881Z,101625.59
2018-05-31T00:06:37.512Z,101628.69
2018-05-31T00:09:05.337Z,101621.13
2018-05-31T00:11:32.135Z,101622.85
2018-05-31T00:13:59.039Z,101621.55
2018-05-31T00:16:25.834Z,101615.41
2018-05-31T00:18:52.627Z,101624.70
2018-05-31T00:21:19.692Z,101616.37
2018-05-31T00:23:46.470Z,101625.25
2018-05-31T00:26:14.016Z,101617.47
2018-05-31T00:28:41.004Z,101617.66
2018-05-31T00:31:07.781Z,101612.87
2018-05-31T00:33:34.606Z,101621.62
2018-05-31T00:36:01.448Z,101610.36
2018-05-31T00:38:28.236Z,101606.58
2018-05-31T00:40:55.035Z,101610.53
2018-05-31T00:43:21.927Z,101615.09
2018-05-31T00:45:48.788Z,101610.38
2018-05-31T00:48:16.341Z,101612.75
2018-05-31T00:50:43.330Z,101609.63
2018-05-31T00:53:10.114Z,101604.38
2018-05-31T00:55:55.311Z,101603.78
2018-05-31T00:58:22.146Z,101602.25
2018-05-31T01:00:49.751Z,101607.02
2018-05-31T01:03:16.740Z,101607.69
2018-05-31T01:05:43.535Z,101608.05
2018-05-31T01:08:10.645Z,101605.80
2018-05-31T01:10:37.531Z,101603.02
2018-05-31T01:13:04.339Z,101604.20
2018-05-31T01:15:36.989Z,101601.40
2018-05-31T01:18:03.845Z,101603.02
2018-05-31T01:20:30.647Z,101598.28
2018-05-31T01:22:57.508Z,101595.72
2018-05-31T01:25:24.411Z,101602.18
2018-05-31T01:27:51.164Z,101603.37
2018-05-31T01:30:18.689Z,101602.41
2018-05-31T01:32:45.517Z,101611.34
2018-05-31T01:35:13.099Z,101609.91
2018-05-31T01:37:39.892Z,101610.85
2018-05-31T01:40:06.736Z,101611.88
2018-05-31T01:42:33.541Z,101611.30
2018-05-31T01:45:00.336Z,101601.41
2018-05-31T01:47:28.363Z,101601.22
2018-05-31T01:49:55.904Z,101605.19
2018-05-31T01:52:23.460Z,101601.39
2018-05-31T01:54:50.284Z,101611.12
2018-05-31T01:57:17.083Z,101619.04
2018-05-31T01:59:43.932Z,101618.24
2018-05-31T02:02:10.802Z,101610.14
2018-05-31T02:04:37.608Z,101612.13
2018-05-31T02:07:05.158Z,101615.48
2018-05-31T02:09:32.267Z,101619.05
2018-05-31T02:11:59.865Z,101615.70
2018-05-31T02:14:26.661Z,101617.26
2018-05-31T02:16:53.623Z,101618.81
2018-05-31T02:19:20.464Z,101630.06
2018-05-31T02:21:47.256Z,101627.45
2018-05-31T02:24:14.143Z,101622.30
2018-05-31T02:26:40.936Z,101614.66
2018-05-31T02:29:08.476Z,101623.95
2018-05-31T02:31:35.308Z,101621.01
2018-05-31T02:34:02.124Z,101608.55
2018-05-31T02:36:28.967Z,101614.88
2018-05-31T02:38:55.840Z,101619.41
2018-05-31T02:41:22.652Z,101611.72
2018-05-31T02:43:49.463Z,101611.91
2018-05-31T02:46:16.416Z,101612.89
2018-05-31T02:48:43.275Z,101612.31
2018-05-31T02:51:10.117Z,101613.11
2018-05-31T02:53:36.949Z,101616.06
2018-05-31T02:56:03.781Z,101615.28
2018-05-31T02:58:31.315Z,101609.13
2018-05-31T03:00:58.924Z,101598.47
2018-05-31T03:03:25.840Z,101596.09
2018-05-31T03:05:52.630Z,101594.91
2018-05-31T03:08:19.464Z,101590.36
2018-05-31T03:10:46.320Z,101588.58
2018-05-31T03:13:13.915Z,101596.69
2018-05-31T03:15:40.699Z,101596.85
2018-05-31T03:18:07.549Z,101595.30
2018-05-31T03:20:34.372Z,101585.63
2018-05-31T03:23:01.907Z,101577.33
2018-05-31T03:25:28.794Z,101577.91
2018-05-31T03:27:55.645Z,101590.17
2018-05-31T03:30:22.475Z,101589.20
2018-05-31T03:32:50.050Z,101593.52
2018-05-31T03:35:16.862Z,101600.63
2018-05-31T03:37:43.892Z,101606.55
2018-05-31T03:40:10.676Z,101608.34
2018-05-31T03:42:38.212Z,101611.11
2018-05-31T03:45:05.172Z,101602.41
2018-05-31T03:47:31.977Z,101599.27
2018-05-31T03:49:59.560Z,101597.89
2018-05-31T03:52:26.413Z,101612.89
2018-05-31T03:54:53.977Z,101606.95
2018-05-31T03:57:21.520Z,101610.13
2018-05-31T03:59:48.491Z,101617.22
2018-05-31T04:02:15.322Z,101610.92
2018-05-31T04:04:42.338Z,101614.48
2018-05-31T04:07:09.168Z,101615.66
2018-05-31T04:09:37.578Z,101622.75
2018-05-31T04:12:04.375Z,101619.41
2018-05-31T04:14:31.269Z,101613.88
2018-05-31T04:16:58.054Z,101612.89
2018-05-31T04:19:24.891Z,101620.02
2018-05-31T04:21:51.760Z,101625.74
2018-05-31T04:24:18.616Z,101623.61
2018-05-31T04:26:45.616Z,101624.41
2018-05-31T04:29:13.189Z,101631.49
2018-05-31T04:31:40.035Z,101629.14
2018-05-31T04:34:06.870Z,101628.30
2018-05-31T04:36:33.708Z,101629.34
2018-05-31T04:39:00.570Z,101623.49
2018-05-31T04:41:27.377Z,101621.15
2018-05-31T04:43:54.202Z,101626.19
2018-05-31T04:46:21.754Z,101626.50
2018-05-31T04:48:48.560Z,101621.66
2018-05-31T04:51:15.469Z,101622.18
2018-05-31T04:53:42.280Z,101625.64
2018-05-31T04:56:09.288Z,101628.52
2018-05-31T04:58:36.859Z,101619.92
2018-05-31T05:01:03.648Z,101633.23
2018-05-31T05:03:30.512Z,101633.02
2018-05-31T05:05:57.344Z,101626.41
2018-05-31T05:08:24.144Z,101629.88
2018-05-31T05:10:50.943Z,101620.84
2018-05-31T05:13:17.772Z,101626.98
2018-05-31T05:15:45.424Z,101629.08
2018-05-31T05:18:12.223Z,101628.71
2018-05-31T05:20:39.057Z,101625.70
2018-05-31T05:23:06.587Z,101624.66
2018-05-31T05:25:33.373Z,101631.14
2018-05-31T05:28:00.268Z,101627.22
2018-05-31T05:30:27.835Z,101635.12
2018-05-31T05:32:54.620Z,101632.81
2018-05-31T05:35:21.569Z,101630.55
2018-05-31T05:37:48.411Z,101634.22
2018-05-31T05:40:15.287Z,101628.48
2018-05-31T05:42:42.240Z,101624.75
2018-05-31T05:45:15.773Z,101631.00
2018-05-31T05:47:42.611Z,101639.60
2018-05-31T05:50:09.441Z,101635.12
2018-05-31T05:52:37.017Z,101644.69
2018-05-31T05:55:04.029Z,101639.06
2018-05-31T05:57:30.840Z,101645.68
2018-05-31T05:59:57.636Z,101647.34
2018-05-31T06:02:24.472Z,101651.96
2018-05-31T06:04:52.050Z,101648.57
2018-05-31T06:07:18.836Z,101653.34
2018-05-31T06:09:45.661Z,101661.50
2018-05-31T06:12:12.459Z,101650.31
2018-05-31T06:14:39.258Z,101646.50
2018-05-31T06:17:06.236Z,101647.34
2018-05-31T06:19:33.016Z,101646.68
2018-05-31T06:21:59.857Z,101655.23
2018-05-31T06:24:26.681Z,101647.79
2018-05-31T06:26:53.496Z,101655.53
2018-05-31T06:29:20.444Z,101654.63
2018-05-31T06:31:47.287Z,101653.55
2018-05-31T06:34:14.091Z,101661.52
2018-05-31T06:36:40.871Z,101656.24
2018-05-31T06:39:07.721Z,101661.23
2018-05-31T06:41:35.582Z,101663.23
2018-05-31T06:44:02.432Z,101669.84
2018-05-31T06:46:29.259Z,101662.59
2018-05-31T06:48:56.780Z,101659.00
2018-05-31T06:51:23.817Z,101661.52
2018-05-31T06:53:51.515Z,101666.64
2018-05-31T06:56:19.032Z,101662.52
2018-05-31T06:58:45.809Z,101670.22
2018-05-31T07:01:12.771Z,101671.20
2018-05-31T07:03:40.284Z,101666.45
2018-05-31T07:06:07.860Z,101665.77
2018-05-31T07:08:34.712Z,101663.27
2018-05-31T07:11:01.484Z,101667.16
2018-05-31T07:13:29.003Z,101666.70
2018-05-31T07:15:56.053Z,101668.67
2018-05-31T07:18:22.851Z,101673.86
2018-05-31T07:20:49.637Z,101664.53
2018-05-31T07:23:16.460Z,101669.84
2018-05-31T07:25:43.252Z,101672.91
2018-05-31T07:28:10.104Z,101666.92
2018-05-31T07:30:37.006Z,101669.89
2018-05-31T07:33:03.802Z,101668.55
2018-05-31T07:35:30.624Z,101663.17
2018-05-31T07:37:57.407Z,101665.44
2018-05-31T07:40:24.179Z,101669.02
2018-05-31T07:42:51.096Z,101666.05
2018-05-31T07:45:24.028Z,101663.34
2018-05-31T07:47:50.864Z,101661.73
2018-05-31T07:50:17.692Z,101663.68
2018-05-31T07:52:44.469Z,101663.66
2018-05-31T07:55:11.347Z,101664.06
2018-05-31T07:57:38.163Z,101673.05
2018-05-31T08:00:04.988Z,101669.38
2018-05-31T08:02:31.807Z,101671.09
2018-05-31T08:04:58.636Z,101668.58
2018-05-31T08:07:25.460Z,101662.05
2018-05-31T08:09:52.976Z,101665.79
2018-05-31T08:12:19.788Z,101663.57
2018-05-31T08:14:46.558Z,101667.91
2018-05-31T08:17:17.692Z,101662.64
2018-05-31T08:19:45.304Z,101664.53
2018-05-31T08:22:12.833Z,101660.01
2018-05-31T08:24:39.673Z,101655.35
2018-05-31T08:27:06.452Z,101658.53
2018-05-31T08:29:33.983Z,101665.02
2018-05-31T08:32:00.857Z,101666.55
2018-05-31T08:34:28.676Z,101665.34
2018-05-31T08:36:55.522Z,101668.19
2018-05-31T08:39:22.386Z,101675.26
2018-05-31T08:41:49.155Z,101672.45
2018-05-31T08:44:16.034Z,101675.61
2018-05-31T08:46:42.880Z,101666.87
2018-05-31T08:49:09.684Z,101670.52
2018-05-31T08:51:37.276Z,101665.27
2018-05-31T08:54:04.087Z,101666.28
2018-05-31T08:56:31.740Z,101661.22
2018-05-31T08:58:59.262Z,101660.47
2018-05-31T09:01:26.072Z,101659.86
2018-05-31T09:03:52.840Z,101659.80
2018-05-31T09:06:19.657Z,101656.27
2018-05-31T09:08:46.522Z,101656.53
2018-05-31T09:11:13.357Z,101661.34
2018-05-31T09:13:40.265Z,101657.99
2018-05-31T09:16:07.084Z,101656.64
2018-05-31T09:18:33.873Z,101659.66
2018-05-31T09:21:01.074Z,101659.09
2018-05-31T09:23:27.851Z,101659.70
2018-05-31T09:25:55.380Z,101660.13
2018-05-31T09:28:22.213Z,101648.41
2018-05-31T09:30:49.034Z,101652.20
2018-05-31T09:33:15.864Z,101654.17
2018-05-31T09:35:42.675Z,101648.41
2018-05-31T09:38:09.486Z,101653.47
2018-05-31T09:40:36.360Z,101645.86
2018-05-31T09:43:03.180Z,101648.79
2018-05-31T09:45:35.936Z,101645.41
2018-05-31T09:48:03.012Z,101646.56
2018-05-31T09:50:29.792Z,101648.16
2018-05-31T09:52:57.328Z,101644.01
2018-05-31T09:55:24.145Z,101643.64
2018-05-31T09:57:51.708Z,101644.65
2018-05-31T10:00:18.531Z,101642.95
2018-05-31T10:02:45.309Z,101645.80
2018-05-31T10:05:12.137Z,101646.95
2018-05-31T10:07:38.947Z,101647.95
2018-05-31T10:10:05.788Z,101648.31
2018-05-31T10:12:32.602Z,101647.61
2018-05-31T10:14:59.369Z,101649.11
2018-05-31T10:17:26.915Z,101645.64
2018-05-31T10:19:54.424Z,101648.73
2018-05-31T10:22:21.260Z,101641.44
2018-05-31T10:24:48.088Z,101641.02
2018-05-31T10:27:14.851Z,101639.72
2018-05-31T10:29:41.673Z,101640.05
2018-05-31T10:32:08.459Z,101631.62
2018-05-31T10:34:35.355Z,101635.66
2018-05-31T10:37:02.190Z,101639.50
2018-05-31T10:39:29.776Z,101627.78
2018-05-31T10:41:56.769Z,101631.73
2018-05-31T10:44:23.543Z,101633.78
2018-05-31T10:46:50.363Z,101631.73
2018-05-31T10:49:17.159Z,101638.26
2018-05-31T10:51:43.911Z,101629.03
2018-05-31T10:54:10.752Z,101626.84
2018-05-31T10:56:37.522Z,101624.61
2018-05-31T10:59:04.532Z,101622.25
2018-05-31T11:01:31.303Z,101612.91
2018-05-31T11:03:58.072Z,101620.41
2018-05-31T11:06:24.889Z,101614.04
2018-05-31T11:08:51.651Z,101614.50
2018-05-31T11:11:18.638Z,101607.72
2018-05-31T11:13:45.391Z,101601.98
2018-05-31T11:16:12.189Z,101606.62
2018-05-31T11:18:39.014Z,101601.20
2018-05-31T11:21:05.805Z,101599.77
2018-05-31T11:23:32.712Z,101598.02
2018-05-31T11:25:59.491Z,101585.66
2018-05-31T11:28:26.264Z,101592.97
2018-05-31T11:30:53.098Z,101585.33
2018-05-31T11:33:19.873Z,101578.85
2018-05-31T11:35:46.760Z,101582.34
2018-05-31T11:38:13.599Z,101574.94
2018-05-31T11:40:41.169Z,101574.56
2018-05-31T11:43:07.996Z,101567.37
2018-05-31T11:45:40.819Z,101557.70
2018-05-31T11:48:08.535Z,101557.58
2018-05-31T11:50:35.311Z,101561.49
2018-05-31T11:53:02.086Z,101568.56
2018-05-31T11:55:28.934Z,101564.77
2018-05-31T11:57:55.713Z,101557.83
2018-05-31T12:00:22.620Z,101560.20
2018-05-31T12:02:49.419Z,101558.64
2018-05-31T12:05:16.215Z,101560.61
2018-05-31T12:07:43.062Z,101557.05
2018-05-31T12:10:09.845Z,101559.94
2018-05-31T12:12:36.732Z,101555.11
2018-05-31T12:15:03.609Z,101569.06
2018-05-31T12:17:30.449Z,101558.50
2018-05-31T12:19:57.972Z,101562.44
2018-05-31T12:22:24.812Z,101556.98
2018-05-31T12:24:52.383Z,101556.56
2018-05-31T12:27:19.166Z,101552.84
2018-05-31T12:29:46.735Z,101554.72
2018-05-31T12:32:14.270Z,101554.46
2018-05-31T12:34:41.119Z,101554.16
2018-05-31T12:37:07.966Z,101552.25
2018-05-31T12:39:34.784Z,101549.11
2018-05-31T12:42:01.611Z,101546.88
2018-05-31T12:44:28.387Z,101545.73
2018-05-31T12:46:55.342Z,101549.88
2018-05-31T12:49:22.187Z,101544.63
2018-05-31T12:51:48.988Z,101541.13
2018-05-31T12:54:15.815Z,101543.27
2018-05-31T12:56:42.636Z,101547.89
2018-05-31T12:59:10.156Z,101551.80
2018-05-31T13:01:37.020Z,101546.56
2018-05-31T13:04:03.804Z,101540.34
2018-05-31T13:06:30.595Z,101540.73
2018-05-31T13:08:57.416Z,101536.21
2018-05-31T13:11:24.200Z,101545.09
2018-05-31T13:13:51.068Z,101531.16
2018-05-31T13:16:18.007Z,101526.73
2018-05-31T13:18:45.563Z,101528.98
2018-05-31T13:21:13.109Z,101530.27
2018-05-31T13:23:39.939Z,101531.28
2018-05-31T13:26:06.853Z,101522.76
2018-05-31T13:28:33.855Z,101518.99
2018-05-31T13:31:01.396Z,101516.09
2018-05-31T13:33:28.236Z,101511.41
2018-05-31T13:35:55.071Z,101509.96
2018-05-31T13:38:21.881Z,101509.02
2018-05-31T13:40:48.750Z,101513.95
2018-05-31T13:43:15.528Z,101508.92
2018-05-31T13:45:43.147Z,101514.41
2018-05-31T13:48:09.965Z,101510.50
2018-05-31T13:50:36.844Z,101508.38
2018-05-31T13:53:03.632Z,101513.69
2018-05-31T13:55:31.339Z,101507.33
2018-05-31T13:57:58.117Z,101503.38
2018-05-31T14:00:24.904Z,101498.98
2018-05-31T14:02:51.780Z,101498.79
2018-05-31T14:05:18.587Z,101500.91
2018-05-31T14:07:45.399Z,101498.36
2018-05-31T14:10:12.909Z,101500.59
2018-05-31T14:12:39.678Z,101501.66
2018-05-31T14:15:12.725Z,101493.66
2018-05-31T14:17:39.499Z,101495.50
2018-05-31T14:20:06.320Z,101491.98
2018-05-31T14:22:33.156Z,101492.64
2018-05-31T14:25:00.115Z,101486.56
2018-05-31T14:27:27.702Z,101486.72
2018-05-31T14:29:54.483Z,101487.44
2018-05-31T14:32:22.192Z,101494.91
2018-05-31T14:34:48.975Z,101490.02
2018-05-31T14:37:16.548Z,101497.50
2018-05-31T14:39:43.454Z,101494.64
2018-05-31T14:42:10.344Z,101490.15
2018-05-31T14:44:37.183Z,101483.48
2018-05-31T14:47:04.707Z,101482.33
2018-05-31T14:49:31.767Z,101472.56
2018-05-31T14:51:58.622Z,101470.30
2018-05-31T14:54:26.150Z,101470.78
2018-05-31T14:56:53.003Z,101474.37
2018-05-31T14:59:19.808Z,101475.95
2018-05-31T15:01:46.640Z,101485.13
2018-05-31T15:04:13.502Z,101480.23
2018-05-31T15:06:40.312Z,101478.50
2018-05-31T15:09:08.235Z,101474.32
2018-05-31T15:11:35.010Z,101468.91
2018-05-31T15:14:02.599Z,101473.09
2018-05-31T15:16:29.455Z,101480.54
2018-05-31T15:18:56.336Z,101482.03
2018-05-31T15:21:23.160Z,101485.09
2018-05-31T15:23:49.940Z,101480.92
2018-05-31T15:26:16.756Z,101477.75
2018-05-31T15:28:44.379Z,101476.86
2018-05-31T15:31:11.149Z,101480.86
2018-05-31T15:33:37.969Z,101478.54
2018-05-31T15:36:04.922Z,101473.98
2018-05-31T15:38:32.435Z,101470.99
2018-05-31T15:40:59.313Z,101466.11
2018-05-31T15:43:27.239Z,101466.33
2018-05-31T15:45:54.009Z,101463.03
2018-05-31T15:48:21.221Z,101460.13
2018-05-31T15:50:47.996Z,101454.96
2018-05-31T15:53:14.816Z,101456.02
2018-05-31T15:55:41.636Z,101466.82
2018-05-31T15:58:08.404Z,101470.77
2018-05-31T16:00:35.243Z,101461.81
2018-05-31T16:03:02.032Z,101459.20
2018-05-31T16:05:29.278Z,101465.81
2018-05-31T16:07:56.821Z,101464.79
2018-05-31T16:10:23.613Z,101475.20
2018-05-31T16:12:50.473Z,101479.86
2018-05-31T16:15:23.573Z,101478.27
2018-05-31T16:17:51.203Z,101478.96
2018-05-31T16:20:17.981Z,101469.99
2018-05-31T16:22:44.763Z,101477.07
2018-05-31T16:25:12.348Z,101476.63
2018-05-31T16:27:39.212Z,101482.69
2018-05-31T16:30:06.856Z,101481.13
2018-05-31T16:32:33.637Z,101476.84
2018-05-31T16:35:00.452Z,101481.37
2018-05-31T16:37:27.621Z,101480.21
2018-05-31T16:39:54.400Z,101481.31
2018-05-31T16:42:21.229Z,101481.46
2018-05-31T16:44:48.625Z,101469.31
2018-05-31T16:47:16.133Z,101475.69
2018-05-31T16:49:42.915Z,101476.41
2018-05-31T16:52:10.478Z,101470.17
2018-05-31T16:54:37.316Z,101474.38
2018-05-31T16:57:04.914Z,101476.72
2018-05-31T16:59:31.703Z,101483.19
2018-05-31T17:01:58.604Z,101473.59
2018-05-31T17:04:26.119Z,101464.30
2018-05-31T17:06:53.747Z,101472.64
2018-05-31T17:09:20.566Z,101469.52
2018-05-31T17:11:47.340Z,101462.89
2018-05-31T17:14:20.208Z,101454.45
2018-05-31T17:16:46.989Z,101454.43
2018-05-31T17:19:13.824Z,101455.86
2018-05-31T17:21:40.631Z,101458.62
2018-05-31T17:24:07.433Z,101463.47
2018-05-31T17:26:34.957Z,101465.90
2018-05-31T17:29:02.542Z,101469.70
2018-05-31T17:31:29.372Z,101469.45
2018-05-31T17:33:56.203Z,101462.45
2018-05-31T17:36:22.832Z,101464.63
2018-05-31T17:38:51.078Z,101459.85
2018-05-31T17:41:17.875Z,101467.34
2018-05-31T17:43:44.704Z,101470.47
2018-05-31T17:46:11.592Z,101472.84
2018-05-31T17:48:39.115Z,101475.87
2018-05-31T17:51:05.956Z,101486.55
2018-05-31T17:53:32.739Z,101486.41
2018-05-31T17:55:59.940Z,101484.08
2018-05-31T17:58:26.768Z,101493.76
2018-05-31T18:00:53.553Z,101483.29
2018-05-31T18:03:21.147Z,101489.48
2018-05-31T18:05:47.943Z,101489.84
2018-05-31T18:08:14.791Z,101494.92
2018-05-31T18:10:41.611Z,101496.33
2018-05-31T18:13:08.500Z,101495.84
2018-05-31T18:15:35.324Z,101498.47
2018-05-31T18:18:02.095Z,101493.80
2018-05-31T18:20:28.930Z,101496.41
2018-05-31T18:22:56.546Z,101494.41
2018-05-31T18:25:23.334Z,101503.77
2018-05-31T18:27:50.901Z,101507.90
2018-05-31T18:30:18.426Z,101520.83
2018-05-31T18:32:45.302Z,101521.28
2018-05-31T18:35:13.008Z,101521.05
2018-05-31T18:37:39.808Z,101520.84
2018-05-31T18:40:06.591Z,101521.80
2018-05-31T18:42:34.176Z,101529.00
2018-05-31T18:45:01.027Z,101531.55
2018-05-31T18:47:27.868Z,101535.41
2018-05-31T18:49:54.669Z,101529.13
2018-05-31T18:52:21.436Z,101537.81
2018-05-31T18:54:48.214Z,101547.14
2018-05-31T18:57:15.104Z,101544.77
2018-05-31T18:59:41.943Z,101547.52
2018-05-31T19:02:08.728Z,101557.02
2018-05-31T19:04:35.508Z,101567.47
2018-05-31T19:07:03.124Z,101568.30
2018-05-31T19:09:33.756Z,101560.40
2018-05-31T19:12:00.570Z,101563.14
2018-05-31T19:14:27.423Z,101558.62
2018-05-31T19:16:54.259Z,101565.80
2018-05-31T19:19:27.121Z,101570.44
2018-05-31T19:21:54.082Z,101568.87
2018-05-31T19:24:26.876Z,101577.05
2018-05-31T19:26:53.723Z,101583.53
2018-05-31T19:29:21.244Z,101588.37
2018-05-31T19:31:48.840Z,101600.81
2018-05-31T19:34:15.723Z,101597.72
2018-05-31T19:36:48.688Z,101607.42
2018-05-31T19:39:15.511Z,101604.52
2018-05-31T19:41:42.284Z,101596.10
2018-05-31T19:44:15.105Z,101589.28
2018-05-31T19:46:41.965Z,101576.30
2018-05-31T19:49:09.615Z,101566.32
2018-05-31T19:51:42.676Z,101557.27
2018-05-31T19:54:09.593Z,101557.34
2018-05-31T19:56:36.417Z,101552.77
2018-05-31T19:59:09.384Z,101560.61
2018-05-31T20:01:42.959Z,101559.07
2018-05-31T20:04:09.913Z,101562.71
2018-05-31T20:06:36.792Z,101565.65
2018-05-31T20:09:04.177Z,101563.12
2018-05-31T20:11:31.227Z,101557.56
2018-05-31T20:13:58.283Z,101565.34
2018-05-31T20:16:25.234Z,101562.59
2018-05-31T20:18:52.198Z,101554.81
2018-05-31T20:21:19.264Z,101552.25
2018-05-31T20:23:47.439Z,101552.84
2018-05-31T20:26:15.725Z,101551.33
2018-05-31T20:28:42.817Z,101556.45
2018-05-31T20:31:09.865Z,101558.77
2018-05-31T20:33:37.224Z,101558.98
2018-05-31T20:36:04.874Z,101563.04
2018-05-31T20:38:31.909Z,101567.66
2018-05-31T20:40:59.838Z,101564.70
2018-05-31T20:43:26.637Z,101565.13
2018-05-31T20:45:54.486Z,101559.32
2018-05-31T20:48:22.058Z,101563.98
2018-05-31T20:50:48.892Z,101558.45
2018-05-31T20:53:16.409Z,101555.45
2018-05-31T20:55:43.236Z,101556.18
2018-05-31T20:58:10.074Z,101559.91
2018-05-31T21:00:36.893Z,101558.84
2018-05-31T21:03:03.713Z,101555.75
2018-05-31T21:05:31.567Z,101557.85
2018-05-31T21:07:58.367Z,101558.38
2018-05-31T21:10:25.946Z,101565.80
2018-05-31T21:12:52.771Z,101562.73
2018-05-31T21:15:19.562Z,101565.00
2018-05-31T21:17:46.367Z,101565.80
2018-05-31T21:20:13.142Z,101571.55
2018-05-31T21:22:40.864Z,101578.48
2018-05-31T21:25:07.651Z,101573.50
2018-05-31T21:27:34.436Z,101575.41
2018-05-31T21:30:01.269Z,101575.97
2018-05-31T21:32:28.048Z,101581.91
2018-05-31T21:34:55.599Z,101585.13
2018-05-31T21:37:22.411Z,101593.70
2018-05-31T21:39:49.979Z,101586.61
2018-05-31T21:42:16.751Z,101585.34
2018-05-31T21:44:43.514Z,101579.00
2018-05-31T21:47:10.421Z,101582.91
2018-05-31T21:49:37.195Z,101594.78
2018-05-31T21:52:04.138Z,101595.26
2018-05-31T21:54:30.917Z,101597.41
2018-05-31T21:56:58.485Z,101591.34
2018-05-31T21:59:25.532Z,101596.82
2018-05-31T22:01:53.108Z,101596.37
2018-05-31T22:04:19.984Z,101581.80
2018-05-31T22:06:46.812Z,101584.62
2018-05-31T22:09:13.707Z,101583.86
2018-05-31T22:11:41.260Z,101584.39
2018-05-31T22:14:08.044Z,101569.50
2018-05-31T22:16:34.904Z,101570.64
2018-05-31T22:19:01.677Z,101570.83
2018-05-31T22:21:28.520Z,101563.09
2018-05-31T22:23:57.062Z,101564.34
2018-05-31T22:26:23.893Z,101564.09
2018-05-31T22:28:51.400Z,101565.33
2018-05-31T22:31:18.242Z,101563.62
2018-05-31T22:33:45.018Z,101562.56
2018-05-31T22:36:11.844Z,101561.20
2018-05-31T22:38:38.664Z,101562.37
2018-05-31T22:41:05.501Z,101559.85
2018-05-31T22:43:32.495Z,101557.59
2018-05-31T22:45:59.634Z,101569.01
2018-05-31T22:48:26.471Z,101570.92
2018-05-31T22:50:53.244Z,101574.23
2018-05-31T22:53:20.173Z,101577.32
2018-05-31T22:55:47.776Z,101585.16
2018-05-31T22:58:14.681Z,101578.89
2018-05-31T23:00:41.762Z,101580.05
2018-05-31T23:03:08.558Z,101585.72
2018-05-31T23:05:35.378Z,101591.09
2018-05-31T23:08:02.148Z,101593.41
2018-05-31T23:10:28.922Z,101594.27
2018-05-31T23:12:55.801Z,101600.14
2018-05-31T23:15:22.637Z,101598.62
2018-05-31T23:17:49.658Z,101597.66
2018-05-31T23:20:17.234Z,101597.46
2018-05-31T23:22:44.060Z,101601.01
2018-05-31T23:25:10.908Z,101599.41
2018-05-31T23:27:38.475Z,101598.78
2018-05-31T23:30:06.050Z,101599.87
2018-05-31T23:32:32.824Z,101607.80
2018-05-31T23:34:59.609Z,101602.40
2018-05-31T23:37:26.468Z,101594.37
2018-05-31T23:39:53.999Z,101597.23
2018-05-31T23:42:20.828Z,101597.92
2018-05-31T23:44:47.634Z,101599.95
2018-05-31T23:47:14.464Z,101597.88
2018-05-31T23:49:41.309Z,101595.94
2018-05-31T23:52:08.000Z,101593.31
2018-05-31T23:54:34.632Z,101584.16
2018-05-31T23:57:01.304Z,101586.88
2018-05-31T23:59:27.932Z,101577.46
